Time;durP1;ratioP1;P1;durP2;ratioP2;P2;SDS_P1;SDS_P2;PMS_P1;PMS_P2;Temp;Humidity;BMP_temperature;BMP_pressure;BME280_temperature;BME280_humidity;BME280_pressure;Samples;Min_cycle;Max_cycle;Signal;HPM_P1;HPM_P2
2022/07/30 00:02:02;;;;;;;6.38;3.88;;;;;;;23.77;52.57;100580.47;4964123;28;20230;-60
2022/07/30 00:04:31;;;;;;;9.90;3.25;;;;;;;23.75;51.64;100572.56;4963972;28;20289;-60
2022/07/30 00:06:59;;;;;;;12.25;3.60;;;;;;;23.73;50.86;100577.41;4962357;28;20214;-60
2022/07/30 00:09:27;;;;;;;5.78;3.15;;;;;;;23.73;50.64;100574.72;4964901;28;20214;-60
2022/07/30 00:11:54;;;;;;;7.20;2.90;;;;;;;23.72;49.61;100581.19;4964733;28;20444;-60
2022/07/30 00:14:22;;;;;;;9.07;3.05;;;;;;;23.72;48.71;100578.47;4963632;28;20211;-60
2022/07/30 00:16:50;;;;;;;9.00;2.60;;;;;;;23.74;47.78;100572.81;4964706;28;20222;-60
2022/07/30 00:19:20;;;;;;;6.70;3.03;;;;;;;23.73;47.49;100577.41;4964153;28;20269;-60
2022/07/30 00:21:49;;;;;;;6.30;2.95;;;;;;;23.69;47.67;100575.38;4963540;28;20246;-60
2022/07/30 00:24:17;;;;;;;6.60;2.90;;;;;;;23.66;47.48;100578.56;4963714;28;20207;-60
2022/07/30 00:26:45;;;;;;;9.77;2.85;;;;;;;23.67;47.46;100572.06;4965633;28;20219;-59
2022/07/30 00:29:13;;;;;;;9.73;2.85;;;;;;;23.60;47.08;100567.59;4963388;28;20211;-60
2022/07/30 00:31:40;;;;;;;7.90;2.97;;;;;;;23.47;47.15;100562.38;4962855;28;20612;-59
2022/07/30 00:34:08;;;;;;;7.23;2.50;;;;;;;23.39;47.37;100564.56;4964613;28;20218;-60
2022/07/30 00:36:38;;;;;;;7.03;2.43;;;;;;;23.38;47.41;100558.31;4963872;28;20211;-60
2022/07/30 00:39:06;;;;;;;8.02;2.70;;;;;;;23.24;47.33;100567.66;4965213;28;20225;-60
2022/07/30 00:41:36;;;;;;;9.53;3.20;;;;;;;23.15;47.77;100569.84;4964694;28;20680;-60
2022/07/30 00:44:04;;;;;;;6.37;2.27;;;;;;;23.14;48.26;100562.78;4964308;28;20225;-58
2022/07/30 00:46:32;;;;;;;8.47;2.77;;;;;;;23.05;48.50;100566.03;4963793;28;20223;-60
2022/07/30 00:49:00;;;;;;;4.80;2.53;;;;;;;23.10;48.43;100560.78;4964641;28;20238;-58
2022/07/30 00:51:28;;;;;;;9.80;3.10;;;;;;;23.14;47.94;100551.16;4965364;28;20206;-60
2022/07/30 00:53:57;;;;;;;10.97;3.30;;;;;;;23.19;47.89;100549.44;4964501;28;20221;-60
2022/07/30 00:56:24;;;;;;;7.47;3.00;;;;;;;23.16;48.05;100544.47;4962590;28;20210;-59
2022/07/30 00:58:52;;;;;;;6.07;2.93;;;;;;;23.13;47.81;100544.91;4967456;28;20263;-59
2022/07/30 01:01:20;;;;;;;7.63;2.80;;;;;;;23.19;47.94;100554.00;4963958;28;20594;-60
2022/07/30 01:03:48;;;;;;;7.67;3.07;;;;;;;23.19;47.90;100544.00;4969011;28;20206;-60
2022/07/30 01:06:16;;;;;;;5.60;2.87;;;;;;;23.25;48.16;100539.56;4968184;28;20699;-60
2022/07/30 01:08:43;;;;;;;10.70;3.03;;;;;;;23.26;48.10;100541.22;4967674;28;20217;-60
2022/07/30 01:11:12;;;;;;;8.23;3.00;;;;;;;23.26;47.49;100539.34;4967008;28;20984;-60
2022/07/30 01:13:41;;;;;;;6.20;3.20;;;;;;;23.17;47.71;100546.13;4968934;28;20659;-60
2022/07/30 01:16:09;;;;;;;11.00;3.60;;;;;;;23.17;47.82;100548.00;4967848;28;20694;-60
2022/07/30 01:21:32;;;;;;;7.43;3.20;;;;;;;23.08;47.98;100541.25;4966684;28;20289;-60
2022/07/30 01:24:27;;;;;;;7.70;3.13;;;;;;;22.89;48.54;100541.28;4967467;28;20297;-60
2022/07/30 01:26:57;;;;;;;6.47;3.00;;;;;;;22.78;48.75;100536.63;4967898;28;20211;-60
2022/07/30 01:29:29;;;;;;;6.37;2.80;;;;;;;22.76;48.93;100543.31;4967232;28;20302;-60
2022/07/30 01:31:59;;;;;;;7.97;2.80;;;;;;;22.68;49.17;100544.44;4968168;28;20219;-58
2022/07/30 01:34:29;;;;;;;5.97;3.00;;;;;;;22.55;49.32;100549.97;4965891;28;20230;-58
2022/07/30 01:36:59;;;;;;;7.13;2.70;;;;;;;22.49;49.38;100545.47;4966916;28;20218;-59
2022/07/30 01:39:29;;;;;;;4.17;2.50;;;;;;;22.44;49.43;100545.28;4967432;28;20655;-59
2022/07/30 01:41:59;;;;;;;6.90;2.73;;;;;;;22.47;49.63;100551.09;4965434;28;20241;-60
2022/07/30 01:44:27;;;;;;;7.60;3.30;;;;;;;22.56;49.17;100548.09;4964550;28;20226;-57
2022/07/30 01:46:56;;;;;;;5.77;2.70;;;;;;;22.58;49.02;100548.69;4967098;28;20207;-60
2022/07/30 01:49:27;;;;;;;5.10;2.80;;;;;;;22.60;48.55;100550.13;4965276;28;20203;-59
2022/07/30 01:51:56;;;;;;;4.37;2.97;;;;;;;22.59;48.86;100550.34;4966706;28;20442;-60
2022/07/30 01:54:27;;;;;;;9.73;2.80;;;;;;;22.63;48.62;100552.38;4964661;28;20251;-59
2022/07/30 01:56:56;;;;;;;3.33;2.30;;;;;;;22.62;48.46;100556.13;4964368;28;20525;-59
2022/07/30 01:59:28;;;;;;;6.63;2.73;;;;;;;22.63;48.32;100565.06;4968347;28;20232;-59
2022/07/30 02:01:55;;;;;;;5.00;2.53;;;;;;;22.61;48.53;100562.56;4965907;28;20209;-59
2022/07/30 02:04:23;;;;;;;7.37;2.47;;;;;;;22.57;48.34;100564.09;4967051;28;20210;-60
2022/07/30 02:06:59;;;;;;;4.50;2.50;;;;;;;22.57;48.41;100571.38;4964839;28;20213;-60
2022/07/30 02:09:31;;;;;;;5.20;2.90;;;;;;;22.57;48.24;100564.09;4967070;28;20218;-59
2022/07/30 02:14:53;;;;;;;5.23;2.20;;;;;;;22.58;48.00;100573.84;4968201;28;20233;-60
2022/07/30 02:17:24;;;;;;;6.03;2.87;;;;;;;22.57;47.96;100576.78;4965469;28;20220;-59
2022/07/30 02:20:02;;;;;;;7.90;3.00;;;;;;;22.58;48.27;100578.44;4966527;28;20229;-59
2022/07/30 02:22:39;;;;;;;8.57;3.13;;;;;;;22.49;48.48;100569.78;4967225;28;20234;-59
2022/07/30 02:25:10;;;;;;;5.63;2.80;;;;;;;22.40;48.80;100576.53;4967699;28;20202;-59
2022/07/30 02:27:41;;;;;;;9.87;3.30;;;;;;;22.24;49.44;100579.81;4965286;28;20217;-60
2022/07/30 02:30:12;;;;;;;5.50;2.60;;;;;;;22.05;49.79;100581.63;4965848;28;20294;-60
2022/07/30 02:32:43;;;;;;;8.77;3.10;;;;;;;22.06;49.86;100581.41;4967264;28;20298;-58
2022/07/30 02:35:15;;;;;;;5.43;2.97;;;;;;;22.03;50.05;100587.22;4965738;28;20208;-60
2022/07/30 02:37:45;;;;;;;7.00;3.23;;;;;;;22.02;50.02;100585.56;4965665;28;20211;-60
2022/07/30 02:40:15;;;;;;;6.53;3.23;;;;;;;22.05;49.83;100593.25;4965515;28;20224;-60
2022/07/30 02:42:46;;;;;;;9.20;3.10;;;;;;;22.06;49.70;100597.59;4968227;28;20238;-59
2022/07/30 02:45:17;;;;;;;8.80;3.60;;;;;;;22.15;49.41;100584.66;4965726;28;20210;-60
2022/07/30 02:47:48;;;;;;;6.93;3.63;;;;;;;22.18;49.31;100589.59;4965816;28;20199;-60
2022/07/30 02:50:18;;;;;;;9.50;3.20;;;;;;;22.01;49.83;100589.31;4965457;28;20221;-60
2022/07/30 02:52:48;;;;;;;4.53;3.13;;;;;;;21.99;49.94;100594.09;4962956;28;20591;-58
2022/07/30 02:55:16;;;;;;;14.00;3.83;;;;;;;21.99;49.97;100596.81;4967021;28;20225;-60
2022/07/30 02:57:47;;;;;;;8.57;3.70;;;;;;;22.02;49.89;100590.97;4965450;28;20803;-60
2022/07/30 03:00:15;;;;;;;11.60;4.67;;;;;;;22.07;49.50;100601.97;4965824;28;21152;-60
2022/07/30 03:02:46;;;;;;;6.60;3.60;;;;;;;22.10;49.47;100597.97;4966430;28;21091;-60
2022/07/30 03:05:15;;;;;;;8.60;3.70;;;;;;;21.96;49.97;100601.81;4966482;28;20245;-60
2022/07/30 03:07:44;;;;;;;9.53;4.60;;;;;;;21.69;50.79;100602.00;4967693;28;20224;-60
2022/07/30 03:10:13;;;;;;;8.53;4.10;;;;;;;21.54;51.31;100604.16;4966014;28;20211;-60
2022/07/30 03:12:44;;;;;;;10.83;3.90;;;;;;;21.47;51.53;100607.91;4965864;28;20242;-60
2022/07/30 03:15:14;;;;;;;10.70;4.20;;;;;;;21.62;51.02;100605.78;4964130;28;20213;-60
2022/07/30 03:17:46;;;;;;;7.70;4.10;;;;;;;21.61;51.17;100604.13;4963275;28;20225;-60
2022/07/30 03:20:18;;;;;;;6.77;4.10;;;;;;;21.66;51.30;100612.38;4963493;28;20675;-59
2022/07/30 03:22:51;;;;;;;6.97;4.17;;;;;;;21.61;51.57;100604.94;4963750;28;20218;-59
2022/07/30 03:25:23;;;;;;;9.50;4.17;;;;;;;21.57;51.42;100616.38;4965810;28;20738;-59
2022/07/30 03:27:52;;;;;;;12.43;4.93;;;;;;;21.50;51.89;100612.91;4969907;28;20650;-59
2022/07/30 03:30:20;;;;;;;6.90;4.33;;;;;;;21.43;52.06;100614.81;4963580;28;20211;-59
2022/07/30 03:32:50;;;;;;;8.80;4.73;;;;;;;21.29;52.18;100617.56;4964634;28;20222;-58
2022/07/30 03:35:20;;;;;;;11.10;4.83;;;;;;;21.15;52.72;100624.03;4965186;28;20552;-59
2022/07/30 03:37:49;;;;;;;7.40;4.63;;;;;;;21.08;52.90;100617.00;4967029;28;20217;-58
2022/07/30 03:40:18;;;;;;;9.73;4.40;;;;;;;21.16;52.75;100617.59;4963270;28;20213;-59
2022/07/30 03:42:46;;;;;;;12.80;4.90;;;;;;;21.25;53.00;100615.50;4965255;28;20207;-58
2022/07/30 03:45:15;;;;;;;8.77;5.07;;;;;;;21.38;52.50;100624.34;4966678;28;20230;-59
2022/07/30 03:47:46;;;;;;;14.13;5.00;;;;;;;21.49;52.39;100620.16;4967935;28;20649;-59
2022/07/30 03:50:15;;;;;;;7.40;4.63;;;;;;;21.54;52.27;100624.91;4963811;28;20215;-60
2022/07/30 03:52:43;;;;;;;10.63;4.30;;;;;;;21.62;51.73;100621.97;4965663;28;20225;-59
2022/07/30 03:55:12;;;;;;;7.87;4.07;;;;;;;21.67;51.75;100624.84;4965016;28;20207;-59
2022/07/30 03:57:40;;;;;;;10.40;4.57;;;;;;;21.71;51.75;100628.75;4964429;28;20214;-58
2022/07/30 04:00:13;;;;;;;9.60;4.57;;;;;;;21.73;51.45;100629.34;4963639;28;20305;-60
2022/07/30 04:02:42;;;;;;;10.40;4.77;;;;;;;21.74;51.30;100631.84;4963048;28;20212;-59
2022/07/30 04:05:12;;;;;;;12.37;4.43;;;;;;;21.78;51.41;100630.38;4966702;28;20227;-59
2022/07/30 04:07:41;;;;;;;9.90;4.83;;;;;;;21.86;51.00;100634.69;4961135;28;20217;-60
2022/07/30 04:10:12;;;;;;;10.70;4.40;;;;;;;21.81;51.30;100637.22;4963434;28;20586;-60
2022/07/30 04:12:39;;;;;;;7.60;4.10;;;;;;;21.79;51.09;100647.41;4965326;28;20250;-60
2022/07/30 04:15:09;;;;;;;9.00;3.63;;;;;;;21.54;52.13;100649.19;4964037;28;20207;-59
2022/07/30 04:18:01;;;;;;;9.27;4.30;;;;;;;21.34;52.58;100646.59;4965620;28;20218;-59
2022/07/30 04:20:32;;;;;;;10.20;3.83;;;;;;;21.42;52.85;100659.00;4966922;28;20404;-59
2022/07/30 04:23:02;;;;;;;10.03;4.00;;;;;;;21.54;52.73;100657.31;4965594;28;20225;-59
2022/07/30 04:25:31;;;;;;;11.37;4.10;;;;;;;21.62;51.94;100667.84;4964775;28;20678;-60
2022/07/30 04:27:59;;;;;;;6.73;3.83;;;;;;;21.65;51.77;100664.69;4964197;28;20289;-60
2022/07/30 04:30:32;;;;;;;8.43;3.97;;;;;;;21.71;52.03;100669.25;4969643;28;20289;-60
2022/07/30 04:32:59;;;;;;;7.13;4.03;;;;;;;21.72;51.91;100663.59;4966924;28;20206;-60
2022/07/30 04:35:28;;;;;;;9.80;4.30;;;;;;;21.73;52.18;100667.13;4962605;28;20257;-59
2022/07/30 04:38:17;;;;;;;9.83;4.53;;;;;;;21.82;51.88;100668.53;4977619;28;20214;-57
2022/07/30 04:40:45;;;;;;;9.60;3.83;;;;;;;21.81;52.02;100674.19;4969889;28;20219;-59
2022/07/30 04:43:14;;;;;;;6.23;4.33;;;;;;;21.80;51.80;100672.53;4976452;28;20716;-59
2022/07/30 04:45:41;;;;;;;8.43;4.50;;;;;;;21.85;51.62;100668.13;4969347;28;20217;-62
2022/07/30 04:48:09;;;;;;;6.60;4.03;;;;;;;21.88;51.94;100673.09;4968917;28;20215;-61
2022/07/30 04:50:42;;;;;;;8.73;4.73;;;;;;;21.88;52.01;100678.50;4969062;28;20621;-58
2022/07/30 04:53:11;;;;;;;10.77;4.60;;;;;;;21.90;51.99;100679.06;4974645;28;20210;-59
2022/07/30 04:55:42;;;;;;;9.63;4.60;;;;;;;21.96;51.80;100690.91;4974766;28;20203;-61
2022/07/30 04:58:12;;;;;;;8.90;4.30;;;;;;;21.98;51.96;100692.38;4975833;28;20198;-60
2022/07/30 05:00:43;;;;;;;11.63;4.47;;;;;;;22.03;52.14;100695.25;4975097;28;20214;-58
2022/07/30 05:03:13;;;;;;;10.77;5.00;;;;;;;21.98;51.77;100700.47;4973728;28;20649;-61
2022/07/30 05:05:41;;;;;;;11.57;4.80;;;;;;;21.98;52.32;100697.78;4969471;28;20241;-61
2022/07/30 05:08:09;;;;;;;9.10;4.10;;;;;;;22.02;52.45;100695.44;4970075;28;20261;-60
2022/07/30 05:10:38;;;;;;;11.40;4.40;;;;;;;22.03;52.34;100695.25;4974175;28;20711;-59
2022/07/30 05:13:13;;;;;;;7.00;4.33;;;;;;;22.04;52.37;100702.31;4974699;28;20202;-60
2022/07/30 05:15:41;;;;;;;9.53;4.50;;;;;;;22.11;52.03;100703.09;4975548;28;20209;-60
2022/07/30 05:18:09;;;;;;;7.50;4.00;;;;;;;22.10;52.43;100704.13;4977909;28;20306;-60
2022/07/30 05:20:37;;;;;;;11.47;4.43;;;;;;;22.13;52.29;100701.00;4972902;28;20305;-59
2022/07/30 05:23:05;;;;;;;10.23;4.77;;;;;;;22.16;51.87;100701.63;4971576;28;20211;-61
2022/07/30 05:25:33;;;;;;;8.13;4.03;;;;;;;22.20;51.61;100706.34;4969480;28;20223;-60
2022/07/30 05:28:01;;;;;;;7.90;4.60;;;;;;;22.19;51.94;100706.56;4968648;28;20233;-59
2022/07/30 05:30:30;;;;;;;13.83;5.27;;;;;;;22.23;51.93;100705.09;4969088;28;20202;-58
2022/07/30 05:32:57;;;;;;;8.60;4.00;;;;;;;22.22;52.09;100698.03;4969316;28;20206;-60
2022/07/30 05:35:30;;;;;;;9.83;4.27;;;;;;;22.24;52.28;100709.44;4969878;28;20214;-60
2022/07/30 05:37:59;;;;;;;8.00;3.90;;;;;;;22.31;52.02;100710.22;4967646;28;20218;-59
2022/07/30 05:40:26;;;;;;;11.83;5.00;;;;;;;22.39;51.77;100704.53;4964773;28;20256;-59
2022/07/30 05:42:54;;;;;;;8.83;5.17;;;;;;;22.36;51.73;100704.97;4968202;28;20285;-60
2022/07/30 05:45:22;;;;;;;10.50;4.80;;;;;;;22.41;51.29;100703.28;4968146;28;20280;-60
2022/07/30 05:47:51;;;;;;;8.70;4.60;;;;;;;22.48;51.03;100705.94;4964703;28;20579;-59
2022/07/30 05:50:19;;;;;;;9.00;4.90;;;;;;;22.54;51.48;100710.44;4968416;28;20211;-60
2022/07/30 05:52:46;;;;;;;7.43;4.57;;;;;;;22.53;51.51;100712.31;4966797;28;20219;-60
2022/07/30 05:55:14;;;;;;;8.33;4.40;;;;;;;22.58;50.94;100708.97;4967486;28;20207;-61
2022/07/30 05:57:42;;;;;;;8.83;4.70;;;;;;;22.67;51.02;100696.84;4967424;28;20211;-61
2022/07/30 06:00:12;;;;;;;10.67;4.60;;;;;;;22.66;51.29;100700.59;4971389;28;20586;-61
2022/07/30 06:02:40;;;;;;;9.37;4.20;;;;;;;22.71;50.81;100708.00;4968252;28;20215;-61
2022/07/30 06:05:10;;;;;;;8.03;3.80;;;;;;;22.78;50.83;100704.22;4968211;28;20242;-60
2022/07/30 06:07:37;;;;;;;6.77;4.03;;;;;;;22.90;50.55;100701.63;4966965;28;20682;-61
2022/07/30 06:10:06;;;;;;;28.43;6.63;;;;;;;22.96;50.61;100710.72;4964869;28;20207;-60
2022/07/30 06:12:34;;;;;;;13.53;5.23;;;;;;;22.99;50.48;100721.09;4965689;28;20239;-60
2022/07/30 06:15:01;;;;;;;10.13;4.87;;;;;;;23.00;50.26;100711.94;4965545;28;20203;-60
2022/07/30 06:17:29;;;;;;;15.47;4.60;;;;;;;23.01;50.34;100714.41;4965168;28;20878;-60
2022/07/30 06:19:59;;;;;;;9.67;3.97;;;;;;;23.06;49.97;100716.44;4966769;28;20222;-60
2022/07/30 06:22:28;;;;;;;11.57;4.80;;;;;;;23.06;49.92;100717.28;4964773;28;20214;-60
2022/07/30 06:24:56;;;;;;;11.17;5.30;;;;;;;23.14;50.07;100724.25;4969224;28;20325;-60
2022/07/30 06:27:27;;;;;;;8.47;4.20;;;;;;;23.15;49.79;100715.09;4963826;28;20313;-60
2022/07/30 06:29:59;;;;;;;6.53;3.87;;;;;;;23.15;50.01;100720.50;4966249;28;20730;-60
2022/07/30 06:32:27;;;;;;;9.10;4.80;;;;;;;23.23;49.99;100728.31;4967531;28;20215;-60
2022/07/30 06:34:55;;;;;;;7.03;4.80;;;;;;;23.24;49.92;100728.09;4966949;28;20225;-60
2022/07/30 06:37:32;;;;;;;10.67;4.50;;;;;;;23.32;49.97;100726.16;4967216;28;20226;-60
2022/07/30 06:40:20;;;;;;;10.67;4.30;;;;;;;23.40;49.64;100726.66;4967625;28;20221;-60
2022/07/30 06:42:48;;;;;;;12.70;4.75;;;;;;;23.43;49.74;100731.66;4966682;28;20305;-58
2022/07/30 06:45:15;;;;;;;9.35;4.28;;;;;;;23.52;49.70;100733.03;4969094;28;20233;-60
2022/07/30 06:47:43;;;;;;;11.87;4.20;;;;;;;23.53;50.81;100733.84;4967758;28;20217;-60
2022/07/30 06:50:11;;;;;;;6.93;4.90;;;;;;;23.59;50.37;100736.47;4969520;28;20671;-60
2022/07/30 06:52:40;;;;;;;9.18;4.45;;;;;;;23.67;49.39;100732.63;4967100;28;20226;-59
2022/07/30 06:55:08;;;;;;;6.97;4.65;;;;;;;23.63;49.31;100734.16;4969583;28;20314;-60
2022/07/30 06:57:36;;;;;;;12.38;4.93;;;;;;;23.71;49.23;100735.72;4967773;28;20214;-59
2022/07/30 07:00:10;;;;;;;8.77;4.93;;;;;;;23.81;49.33;100742.25;4969231;28;20451;-60
2022/07/30 07:02:38;;;;;;;6.93;4.40;;;;;;;23.79;49.65;100743.53;4967589;28;20293;-60
2022/07/30 07:05:06;;;;;;;7.82;4.78;;;;;;;23.88;50.04;100742.16;4964163;28;20230;-59
2022/07/30 07:07:35;;;;;;;11.02;4.50;;;;;;;23.99;49.72;100739.50;4961809;28;20219;-62
2022/07/30 07:10:11;;;;;;;13.50;4.22;;;;;;;23.98;49.83;100742.44;4961000;28;20206;-60
2022/07/30 07:12:39;;;;;;;13.30;4.53;;;;;;;24.04;49.71;100746.94;4961665;28;20250;-60
2022/07/30 07:15:08;;;;;;;11.85;8.02;;;;;;;24.10;49.83;100748.72;4962802;28;20206;-60
2022/07/30 07:17:36;;;;;;;9.40;5.00;;;;;;;24.15;49.80;100748.88;4961533;28;20588;-60
2022/07/30 07:20:05;;;;;;;8.80;4.47;;;;;;;24.22;49.40;100744.19;4964495;28;20638;-60
2022/07/30 07:22:32;;;;;;;9.82;4.60;;;;;;;24.27;49.68;100748.94;4963868;28;20207;-60
2022/07/30 07:25:00;;;;;;;12.98;4.70;;;;;;;24.30;49.43;100741.16;4968138;28;20329;-60
2022/07/30 07:27:29;;;;;;;12.07;5.45;;;;;;;24.36;49.42;100742.94;4970117;28;20218;-60
2022/07/30 07:29:57;;;;;;;11.70;5.43;;;;;;;24.48;48.54;100744.84;4973240;28;20523;-60
2022/07/30 07:32:32;;;;;;;10.27;5.53;;;;;;;24.55;48.52;100745.56;4970792;28;20215;-60
2022/07/30 07:35:00;;;;;;;9.02;4.70;;;;;;;24.59;48.42;100741.34;4971465;28;20301;-60
2022/07/30 07:37:28;;;;;;;11.23;5.53;;;;;;;24.66;47.98;100740.16;4971644;28;20206;-60
2022/07/30 07:39:56;;;;;;;10.18;5.32;;;;;;;24.79;47.63;100744.56;4967711;28;20215;-60
2022/07/30 07:42:25;;;;;;;10.50;5.43;;;;;;;24.81;47.26;100750.56;4972943;28;20576;-60
2022/07/30 07:44:54;;;;;;;10.52;5.47;;;;;;;24.81;47.02;100747.84;4970916;28;20207;-61
2022/07/30 07:47:22;;;;;;;8.60;4.90;;;;;;;24.75;47.60;100746.06;4965912;28;20207;-59
2022/07/30 07:49:50;;;;;;;10.35;5.05;;;;;;;24.77;47.88;100746.69;4971960;28;20214;-60
2022/07/30 07:52:18;;;;;;;11.95;5.45;;;;;;;24.82;47.87;100744.06;4973637;28;20504;-60
2022/07/30 07:54:45;;;;;;;9.05;5.45;;;;;;;24.84;47.79;100747.38;4970755;28;20648;-60
2022/07/30 07:57:14;;;;;;;9.02;4.78;;;;;;;24.83;47.49;100748.44;4968494;28;20203;-61
2022/07/30 07:59:42;;;;;;;11.68;4.35;;;;;;;24.84;47.55;100747.38;4969955;28;20221;-60
2022/07/30 08:02:11;;;;;;;9.15;4.15;;;;;;;24.87;47.61;100749.63;4967308;28;20306;-59
2022/07/30 08:04:39;;;;;;;12.15;5.00;;;;;;;24.85;47.57;100750.91;4969230;28;20211;-60
2022/07/30 08:07:06;;;;;;;9.00;4.43;;;;;;;24.94;47.40;100746.81;4967532;28;20602;-59
2022/07/30 08:09:34;;;;;;;10.32;4.47;;;;;;;24.91;47.72;100739.97;4968703;28;20635;-60
2022/07/30 08:12:11;;;;;;;13.20;5.00;;;;;;;24.95;47.61;100743.88;4966730;28;20250;-60
2022/07/30 08:14:39;;;;;;;9.00;4.57;;;;;;;24.93;47.46;100753.31;4968956;28;20229;-60
2022/07/30 08:17:06;;;;;;;10.70;5.88;;;;;;;24.99;47.31;100749.66;4967657;28;20199;-61
2022/07/30 08:19:36;;;;;;;8.40;5.55;;;;;;;25.02;47.19;100741.88;4968929;28;20242;-60
2022/07/30 08:22:04;;;;;;;8.68;4.57;;;;;;;25.04;47.07;100744.34;4968196;28;20225;-61
2022/07/30 08:24:32;;;;;;;10.93;5.22;;;;;;;25.05;47.07;100743.28;4969552;28;20301;-60
2022/07/30 08:27:00;;;;;;;7.88;3.70;;;;;;;25.09;47.36;100742.56;4966476;28;20239;-60
2022/07/30 08:29:28;;;;;;;7.75;5.10;;;;;;;25.23;47.26;100740.47;4968615;28;20222;-59
2022/07/30 08:31:56;;;;;;;8.00;4.53;;;;;;;25.41;46.66;100743.03;4968866;28;20217;-61
2022/07/30 08:34:24;;;;;;;8.63;5.35;;;;;;;25.55;46.23;100740.84;4969386;28;20289;-60
2022/07/30 08:36:53;;;;;;;5.53;3.75;;;;;;;25.70;46.18;100740.38;4969638;28;20240;-60
2022/07/30 08:39:21;;;;;;;10.90;4.00;;;;;;;25.83;46.44;100734.66;4967267;28;20215;-59
2022/07/30 08:41:49;;;;;;;8.82;4.63;;;;;;;25.97;45.74;100735.19;4970038;28;20215;-60
2022/07/30 08:44:20;;;;;;;7.25;4.68;;;;;;;26.23;44.49;100735.41;4973789;28;20225;-60
2022/07/30 08:46:51;;;;;;;9.90;4.85;;;;;;;26.16;44.16;100742.06;4968179;28;20809;-60
2022/07/30 08:49:19;;;;;;;8.50;4.63;;;;;;;26.00;44.42;100735.53;4970676;28;20217;-61
2022/07/30 08:51:47;;;;;;;9.02;4.32;;;;;;;25.92;44.84;100743.25;4969199;28;20217;-60
2022/07/30 08:54:16;;;;;;;9.02;5.35;;;;;;;25.89;44.91;100743.72;4971129;28;20211;-59
2022/07/30 08:56:44;;;;;;;9.60;4.25;;;;;;;25.80;45.14;100743.28;4967436;28;20345;-59
2022/07/30 08:59:13;;;;;;;12.50;5.90;;;;;;;25.74;44.96;100736.94;4970955;28;20637;-59
2022/07/30 09:01:40;;;;;;;7.28;4.88;;;;;;;25.80;44.61;100732.44;4968803;28;20624;-59
2022/07/30 09:04:08;;;;;;;11.00;3.80;;;;;;;26.02;44.85;100738.03;4966882;28;20313;-58
2022/07/30 09:06:36;;;;;;;6.70;3.80;;;;;;;26.24;44.55;100731.63;4967463;28;20230;-59
2022/07/30 09:09:04;;;;;;;5.38;2.90;;;;;;;26.35;44.20;100726.41;4966070;28;20210;-61
2022/07/30 09:11:35;;;;;;;6.40;3.13;;;;;;;26.52;44.29;100733.50;4967676;28;20269;-59
2022/07/30 09:14:10;;;;;;;7.43;3.25;;;;;;;26.68;43.41;100731.84;4969521;28;20207;-58
2022/07/30 09:16:39;;;;;;;8.38;3.15;;;;;;;26.73;43.15;100736.56;4965776;28;20202;-60
2022/07/30 09:19:15;;;;;;;13.90;3.60;;;;;;;26.67;42.92;100732.09;4967886;28;20211;-62
2022/07/30 09:21:54;;;;;;;8.07;3.22;;;;;;;26.63;43.26;100729.06;4969730;28;20215;-60
2022/07/30 09:24:22;;;;;;;8.95;3.10;;;;;;;26.50;41.87;100735.63;4969730;28;20199;-61
2022/07/30 09:26:56;;;;;;;8.77;2.90;;;;;;;26.48;40.99;100735.06;4972154;28;20230;-60
2022/07/30 09:29:25;;;;;;;7.50;2.95;;;;;;;26.33;41.31;100740.25;4971381;28;20242;-60
2022/07/30 09:31:57;;;;;;;13.15;2.42;;;;;;;26.29;40.78;100739.09;4971609;28;20211;-59
2022/07/30 09:34:28;;;;;;;6.43;3.17;;;;;;;26.39;40.30;100732.97;4971161;28;20510;-59
2022/07/30 09:36:57;;;;;;;6.15;2.90;;;;;;;26.66;39.61;100735.88;4970175;28;20213;-59
2022/07/30 09:39:29;;;;;;;6.35;2.33;;;;;;;26.85;39.57;100735.38;4972139;28;20206;-58
2022/07/30 09:42:30;;;;;;;9.43;2.80;;;;;;;26.91;38.40;100731.69;4973442;28;20257;-60
2022/07/30 09:45:05;;;;;;;6.78;2.50;;;;;;;27.10;37.84;100724.06;4974758;28;20704;-59
2022/07/30 09:47:34;;;;;;;9.55;2.55;;;;;;;27.26;37.67;100731.41;4969996;28;20226;-62
2022/07/30 09:50:05;;;;;;;7.90;2.38;;;;;;;27.43;37.75;100733.25;4970369;28;20302;-60
2022/07/30 09:52:34;;;;;;;5.45;2.35;;;;;;;27.41;36.62;100732.66;4972416;28;20233;-60
2022/07/30 09:55:02;;;;;;;4.38;2.17;;;;;;;27.45;36.20;100731.06;4972216;28;20211;-59
2022/07/30 09:57:31;;;;;;;11.32;2.55;;;;;;;27.32;35.42;100729.56;4969798;28;20241;-61
2022/07/30 10:00:17;;;;;;;6.10;2.30;;;;;;;27.43;35.80;100719.63;4970224;28;20609;-59
2022/07/30 10:02:50;;;;;;;6.28;2.20;;;;;;;27.57;35.17;100712.75;4970548;28;20211;-57
2022/07/30 10:05:20;;;;;;;5.07;2.47;;;;;;;27.63;34.62;100720.72;4970347;28;20250;-60
2022/07/30 10:07:50;;;;;;;5.68;2.10;;;;;;;27.84;34.93;100719.06;4969732;28;20691;-59
2022/07/30 10:10:21;;;;;;;3.50;1.83;;;;;;;27.95;35.04;100709.91;4969478;28;20641;-59
2022/07/30 10:12:56;;;;;;;6.95;2.03;;;;;;;28.03;34.89;100711.34;4971015;28;20282;-59
2022/07/30 10:15:27;;;;;;;9.50;3.13;;;;;;;28.17;35.08;100714.50;4971191;28;20202;-60
2022/07/30 10:17:56;;;;;;;5.85;2.53;;;;;;;28.27;34.71;100709.97;4971057;28;20241;-60
2022/07/30 10:20:25;;;;;;;4.40;2.40;;;;;;;28.33;34.95;100708.09;4969846;28;20633;-59
2022/07/30 10:22:53;;;;;;;7.22;1.95;;;;;;;28.47;35.27;100706.59;4971248;28;20241;-60
2022/07/30 10:25:22;;;;;;;7.10;2.13;;;;;;;28.62;34.69;100700.44;4969551;28;20219;-60
2022/07/30 10:27:56;;;;;;;8.38;2.40;;;;;;;28.71;34.58;100702.41;4966433;28;20219;-60
2022/07/30 10:30:25;;;;;;;7.15;2.17;;;;;;;28.71;34.50;100702.41;4971007;28;20215;-61
2022/07/30 10:32:57;;;;;;;6.07;2.25;;;;;;;28.56;34.32;100696.03;4970394;28;20207;-61
2022/07/30 10:35:25;;;;;;;5.60;2.17;;;;;;;28.51;34.75;100691.34;4969470;28;20235;-60
2022/07/30 10:38:10;;;;;;;3.22;1.77;;;;;;;28.62;35.60;100694.97;4967261;28;20199;-60
2022/07/30 10:40:48;;;;;;;7.55;2.47;;;;;;;28.56;35.34;100685.13;4970179;28;20214;-60
2022/07/30 10:43:55;;;;;;;4.20;2.40;;;;;;;28.51;35.73;100690.53;4969875;28;20212;-59
2022/07/30 10:46:37;;;;;;;5.35;2.20;;;;;;;28.58;35.24;100685.69;4970895;28;20217;-61
2022/07/30 10:49:09;;;;;;;4.28;2.10;;;;;;;28.75;35.47;100689.91;4971031;28;20215;-60
2022/07/30 10:51:47;;;;;;;8.10;2.30;;;;;;;28.99;35.40;100686.78;4966738;28;20319;-60
2022/07/30 10:54:38;;;;;;;3.83;2.17;;;;;;;29.20;35.26;100677.63;4970181;28;20919;-60
2022/07/30 10:57:10;;;;;;;4.85;2.15;;;;;;;29.27;34.22;100686.41;4970294;28;20211;-60
2022/07/30 11:00:11;;;;;;;7.25;2.55;;;;;;;29.15;34.59;100683.06;4968485;28;20214;-59
2022/07/30 11:03:27;;;;;;;5.68;2.45;;;;;;;29.05;34.12;100681.09;4972817;28;20680;-60
2022/07/30 11:06:28;;;;;;;7.25;2.63;;;;;;;28.83;34.30;100676.88;4970744;28;20216;-60
2022/07/30 11:08:56;;;;;;;6.20;2.42;;;;;;;28.57;35.41;100673.94;4969500;28;20615;-60
2022/07/30 11:11:45;;;;;;;4.65;2.28;;;;;;;28.41;35.69;100688.53;4968632;28;20585;-62
2022/07/30 11:14:58;;;;;;;2.72;1.92;;;;;;;28.27;35.90;100679.16;4969159;28;20569;-58
2022/07/30 11:18:01;;;;;;;6.97;2.25;;;;;;;28.51;35.71;100672.25;4965548;28;20233;-60
2022/07/30 11:20:31;;;;;;;4.13;2.20;;;;;;;28.77;35.47;100663.19;4970300;28;20234;-59
2022/07/30 11:23:11;;;;;;;2.72;1.70;;;;;;;29.03;34.77;100666.06;4968206;28;20221;-60
2022/07/30 11:25:46;;;;;;;4.75;2.25;;;;;;;29.05;33.99;100672.06;4970315;28;20207;-60
2022/07/30 11:28:38;;;;;;;7.43;2.15;;;;;;;29.04;33.90;100673.97;4967766;28;20264;-60
2022/07/30 11:31:26;;;;;;;2.63;1.80;;;;;;;29.21;33.86;100671.06;4970640;28;20668;-60
2022/07/30 11:34:26;;;;;;;4.78;2.33;;;;;;;29.71;32.43;100659.53;4969639;28;20221;-60
2022/07/30 11:37:11;;;;;;;6.28;2.17;;;;;;;29.35;32.54;100664.03;4968096;28;20221;-59
2022/07/30 11:40:11;;;;;;;5.25;2.03;;;;;;;29.25;33.59;100666.72;4965156;28;20301;-60
2022/07/30 11:42:41;;;;;;;3.95;2.00;;;;;;;29.35;33.99;100653.09;4968583;28;20299;-59
2022/07/30 11:45:25;;;;;;;4.50;2.00;;;;;;;29.43;33.19;100647.16;4968019;28;20441;-58
2022/07/30 11:47:56;;;;;;;4.82;1.80;;;;;;;29.35;33.63;100649.56;4972281;28;20242;-62
2022/07/30 11:50:27;;;;;;;6.78;1.83;;;;;;;29.02;33.21;100648.06;4969755;28;20222;-61